createdAt,value
2024-01-11T00:01:34.342Z,99763.94
2024-01-11T00:03:36.003Z,99763.78
2024-01-11T00:05:37.883Z,99770.84
2024-01-11T00:07:39.501Z,99764.59
2024-01-11T00:09:42.866Z,99769.19
2024-01-11T00:11:44.392Z,99770.19
2024-01-11T00:13:45.869Z,99767.50
2024-01-11T00:15:47.446Z,99762.94
2024-01-11T00:17:49.155Z,99765.81
2024-01-11T00:19:51.641Z,99767.50
2024-01-11T00:21:53.083Z,99767.50
2024-01-11T00:23:54.607Z,99766.84
2024-01-11T00:25:56.117Z,99764.31
2024-01-11T00:27:57.586Z,99771.59
2024-01-11T00:29:59.044Z,99769.06
2024-01-11T00:32:00.900Z,99770.13
2024-01-11T00:34:02.491Z,99766.56
2024-01-11T00:36:04.743Z,99771.31
2024-01-11T00:38:06.282Z,99772.16
2024-01-11T00:40:08.339Z,99764.03
2024-01-11T00:42:09.786Z,99769.63
2024-01-11T00:44:11.276Z,99768.63
2024-01-11T00:46:12.913Z,99765.09
2024-01-11T00:48:14.558Z,99770.66
2024-01-11T00:50:16.127Z,99770.66
2024-01-11T00:52:17.645Z,99774.41
2024-01-11T00:54:19.137Z,99777.91
2024-01-11T00:56:21.048Z,99786.03
2024-01-11T00:58:22.553Z,99790.41
2024-01-11T01:00:23.985Z,99790.41
2024-01-11T01:02:25.481Z,99793.13
2024-01-11T01:04:26.950Z,99784.00
2024-01-11T01:06:28.438Z,99787.53
2024-01-11T01:08:30.443Z,99783.78
2024-01-11T01:10:31.946Z,99781.09
2024-01-11T01:12:33.462Z,99780.44
2024-01-11T01:14:37.498Z,99780.44
2024-01-11T01:16:39.233Z,99775.03
2024-01-11T01:18:40.881Z,99769.63
2024-01-11T01:20:42.499Z,99772.16
2024-01-11T01:22:43.982Z,99780.72
2024-01-11T01:24:45.558Z,99788.84
2024-01-11T01:26:47.070Z,99778.88
2024-01-11T01:28:48.560Z,99784.28
2024-01-11T01:30:50.094Z,99786.97
2024-01-11T01:32:51.849Z,99785.13
2024-01-11T01:34:53.395Z,99786.97
2024-01-11T01:36:55.009Z,99786.78
2024-01-11T01:38:56.905Z,99781.38
2024-01-11T01:40:58.392Z,99781.38
2024-01-11T01:43:03.057Z,99786.78
2024-01-11T01:45:05.042Z,99784.91
2024-01-11T01:47:07.040Z,99788.28
2024-01-11T01:49:08.685Z,99782.88
2024-01-11T01:51:10.209Z,99783.72
2024-01-11T01:53:11.737Z,99781.84
2024-01-11T01:55:15.907Z,99787.25
2024-01-11T01:57:19.718Z,99780.81
2024-01-11T01:59:22.432Z,99779.78
2024-01-11T02:01:24.470Z,99781.47
2024-01-11T02:03:29.292Z,99775.88
2024-01-11T02:05:35.185Z,99775.88
2024-01-11T02:07:36.764Z,99776.53
2024-01-11T02:09:38.574Z,99775.50
2024-01-11T02:11:41.903Z,99779.06
2024-01-11T02:13:43.965Z,99787.16
2024-01-11T02:15:46.488Z,99788.19
2024-01-11T02:17:48.012Z,99780.06
2024-01-11T02:19:49.503Z,99771.75
2024-01-11T02:21:55.837Z,99774.28
2024-01-11T02:24:07.869Z,99778.66
2024-01-11T02:26:09.586Z,99774.09
2024-01-11T02:28:12.314Z,99775.13
2024-01-11T02:30:14.407Z,99776.16
2024-01-11T02:32:16.055Z,99776.16
2024-01-11T02:34:17.883Z,99779.69
2024-01-11T02:36:21.468Z,99783.41
2024-01-11T02:38:23.002Z,99775.13
2024-01-11T02:40:24.837Z,99772.59
2024-01-11T02:42:26.362Z,99776.16
2024-01-11T02:44:27.891Z,99778.00
2024-01-11T02:46:29.480Z,99785.28
2024-01-11T02:48:31.480Z,99778.22
2024-01-11T02:50:33.481Z,99778.22
2024-01-11T02:52:35.446Z,99776.34
2024-01-11T02:54:36.885Z,99783.63
2024-01-11T02:56:38.635Z,99781.75
2024-01-11T02:58:40.093Z,99774.28
2024-01-11T03:00:41.584Z,99767.84
2024-01-11T03:02:43.106Z,99770.53
2024-01-11T03:04:44.591Z,99760.56
2024-01-11T03:06:46.085Z,99767.31
2024-01-11T03:08:47.576Z,99757.50
2024-01-11T03:10:49.000Z,99765.63
2024-01-11T03:12:50.597Z,99765.81
2024-01-11T03:14:55.943Z,99763.13
2024-01-11T03:16:57.428Z,99760.78
2024-01-11T03:18:59.016Z,99761.78
2024-01-11T03:21:00.540Z,99768.03
2024-01-11T03:23:02.254Z,99753.03
2024-01-11T03:25:04.031Z,99750.53
2024-01-11T03:27:06.767Z,99748.84
2024-01-11T03:29:08.294Z,99745.28
2024-01-11T03:31:11.134Z,99754.44
2024-01-11T03:33:12.971Z,99755.47
2024-01-11T03:35:14.723Z,99760.88
2024-01-11T03:37:17.625Z,99751.91
2024-01-11T03:39:19.560Z,99758.38
2024-01-11T03:41:21.062Z,99756.69
2024-01-11T03:43:22.572Z,99757.53
2024-01-11T03:45:24.010Z,99749.59
2024-01-11T03:47:25.581Z,99753.78
2024-01-11T03:49:27.156Z,99744.84
2024-01-11T03:51:28.736Z,99751.06
2024-01-11T03:53:30.215Z,99754.81
2024-01-11T03:55:31.681Z,99761.25
2024-01-11T03:57:33.161Z,99756.03
2024-01-11T03:59:34.727Z,99748.28
2024-01-11T04:01:41.409Z,99759.94
2024-01-11T04:03:43.256Z,99753.06
2024-01-11T04:05:44.935Z,99749.72
2024-01-11T04:07:46.466Z,99759.69
2024-01-11T04:09:47.930Z,99756.50
2024-01-11T04:11:49.354Z,99758.56
2024-01-11T04:13:50.830Z,99754.00
2024-01-11T04:15:52.252Z,99768.50
2024-01-11T04:17:53.939Z,99769.38
2024-01-11T04:19:55.559Z,99769.38
2024-01-11T04:21:57.210Z,99780.16
2024-01-11T04:23:58.848Z,99787.22
2024-01-11T04:26:00.427Z,99785.56
2024-01-11T04:28:01.939Z,99783.72
2024-01-11T04:30:03.705Z,99790.97
2024-01-11T04:32:05.384Z,99791.63
2024-01-11T04:34:06.934Z,99790.25
2024-01-11T04:36:09.616Z,99788.19
2024-01-11T04:38:11.107Z,99790.69
2024-01-11T04:40:12.621Z,99786.13
2024-01-11T04:42:14.114Z,99786.13
2024-01-11T04:44:16.540Z,99784.44
2024-01-11T04:46:26.189Z,99791.75
2024-01-11T04:48:27.802Z,99789.03
2024-01-11T04:50:29.308Z,99778.59
2024-01-11T04:52:30.882Z,99776.06
2024-01-11T04:54:32.372Z,99772.72
2024-01-11T04:56:33.931Z,99774.56
2024-01-11T04:58:41.165Z,99773.06
2024-01-11T05:00:42.645Z,99772.06
2024-01-11T05:02:44.199Z,99773.91
2024-01-11T05:04:45.717Z,99775.78
2024-01-11T05:06:47.189Z,99775.97
2024-01-11T05:08:50.792Z,99782.03
2024-01-11T05:10:52.419Z,99779.31
2024-01-11T05:12:53.874Z,99781.81
2024-01-11T05:14:55.405Z,99780.16
2024-01-11T05:16:57.194Z,99781.00
2024-01-11T05:18:59.349Z,99781.19
2024-01-11T05:21:00.989Z,99771.41
2024-01-11T05:23:02.486Z,99772.06
2024-01-11T05:25:04.241Z,99773.06
2024-01-11T05:27:05.837Z,99776.81
2024-01-11T05:29:07.352Z,99769.72
2024-01-11T05:31:14.247Z,99767.22
2024-01-11T05:33:15.848Z,99773.63
2024-01-11T05:35:17.492Z,99778.19
2024-01-11T05:37:19.009Z,99768.44
2024-01-11T05:39:20.525Z,99776.91
2024-01-11T05:41:21.997Z,99799.53
2024-01-11T05:43:24.577Z,99802.44
2024-01-11T05:45:32.089Z,99795.16
2024-01-11T05:47:42.577Z,99798.69
2024-01-11T05:49:44.134Z,99789.75
2024-01-11T05:51:45.632Z,99798.69
2024-01-11T05:53:47.115Z,99801.22
2024-01-11T05:55:49.095Z,99804.09
2024-01-11T05:57:50.908Z,99800.56
2024-01-11T05:59:52.356Z,99799.72
2024-01-11T06:01:53.884Z,99807.84
2024-01-11T06:03:56.184Z,99804.09
2024-01-11T06:05:57.725Z,99807.84
2024-01-11T06:07:59.325Z,99804.09
2024-01-11T06:10:02.633Z,99807.00
2024-01-11T06:12:06.387Z,99810.69
2024-01-11T06:14:07.973Z,99816.94
2024-01-11T06:16:12.177Z,99827.75
2024-01-11T06:18:14.795Z,99825.25
2024-01-11T06:20:16.460Z,99832.72
2024-01-11T06:22:18.105Z,99842.66
2024-01-11T06:24:20.231Z,99846.22
2024-01-11T06:26:21.732Z,99848.06
2024-01-11T06:28:23.363Z,99854.31
2024-01-11T06:30:24.919Z,99857.03
2024-01-11T06:32:26.505Z,99849.94
2024-01-11T06:34:28.115Z,99853.47
2024-01-11T06:36:31.259Z,99848.25
2024-01-11T06:38:33.155Z,99849.09
2024-01-11T06:40:34.591Z,99847.59
2024-01-11T06:42:36.039Z,99849.63
2024-01-11T06:44:37.541Z,99846.28
2024-01-11T06:46:42.200Z,99854.38
2024-01-11T06:48:43.728Z,99848.34
2024-01-11T06:50:45.251Z,99850.00
2024-01-11T06:52:46.760Z,99850.84
2024-01-11T06:54:48.252Z,99845.63
2024-01-11T06:56:49.988Z,99861.84
2024-01-11T06:58:51.510Z,99864.72
2024-01-11T07:00:53.016Z,99862.00
2024-01-11T07:02:54.928Z,99853.06
2024-01-11T07:04:56.473Z,99864.06
2024-01-11T07:06:58.054Z,99869.25
2024-01-11T07:09:00.107Z,99868.63
2024-01-11T07:11:03.261Z,99857.81
2024-01-11T07:13:05.293Z,99863.41
2024-01-11T07:15:09.019Z,99859.84
2024-01-11T07:17:10.543Z,99854.25
2024-01-11T07:19:12.609Z,99854.44
2024-01-11T07:21:36.435Z,99863.41
2024-01-11T07:24:14.966Z,99867.66
2024-01-11T07:26:59.245Z,99884.41
2024-01-11T07:29:37.884Z,99883.75
2024-01-11T07:31:52.365Z,99889.31
2024-01-11T07:36:42.788Z,99886.28
2024-01-11T07:38:50.336Z,99894.38
2024-01-11T07:41:08.154Z,99885.44
2024-01-11T07:43:15.349Z,99905.19
2024-01-11T07:45:22.734Z,99900.44
2024-01-11T07:47:41.817Z,99892.16
2024-01-11T07:49:47.082Z,99891.78
2024-01-11T07:51:48.764Z,99890.56
2024-01-11T07:54:04.794Z,99901.38
2024-01-11T07:56:41.881Z,99892.47
2024-01-11T07:58:49.735Z,99901.88
2024-01-11T08:01:04.106Z,99903.56
2024-01-11T08:03:29.804Z,99887.34
2024-01-11T08:05:35.661Z,99896.28
2024-01-11T08:07:53.155Z,99904.03
2024-01-11T08:10:31.686Z,99899.81
2024-01-11T08:12:33.192Z,99890.72
2024-01-11T08:14:34.676Z,99896.75
2024-01-11T08:16:36.386Z,99892.84
2024-01-11T08:18:37.983Z,99898.91
2024-01-11T08:20:40.762Z,99898.56
2024-01-11T08:22:44.311Z,99884.69
2024-01-11T08:24:45.995Z,99880.78
2024-01-11T08:26:47.952Z,99878.53
2024-01-11T08:32:08.744Z,99859.56
2024-01-11T08:34:20.502Z,99849.22
2024-01-11T08:36:45.449Z,99850.53
2024-01-11T08:41:47.193Z,99863.97
2024-01-11T08:46:40.462Z,99867.41
2024-01-11T08:48:51.884Z,99876.19
2024-01-11T08:50:55.482Z,99887.47
2024-01-11T08:52:59.430Z,99881.69
2024-01-11T08:55:13.793Z,99876.75
2024-01-11T08:57:41.464Z,99874.31
2024-01-11T09:00:11.806Z,99861.09
2024-01-11T09:02:21.737Z,99872.38
2024-01-11T09:04:39.737Z,99870.97
2024-01-11T09:06:47.083Z,99869.56
2024-01-11T09:08:53.471Z,99875.25
2024-01-11T09:11:00.692Z,99873.84
2024-01-11T09:13:15.170Z,99899.13
2024-01-11T09:15:30.777Z,99901.28
2024-01-11T09:17:42.200Z,99903.06
2024-01-11T09:19:43.739Z,99904.81
2024-01-11T09:21:56.619Z,99916.41
2024-01-11T09:24:00.916Z,99929.16
2024-01-11T09:26:33.444Z,99923.47
2024-01-11T09:29:16.490Z,99904.38
2024-01-11T09:31:40.729Z,99888.84
2024-01-11T09:34:06.366Z,99888.09
2024-01-11T09:36:23.019Z,99883.78
2024-01-11T09:38:28.169Z,99871.16
2024-01-11T09:43:32.136Z,99851.63
2024-01-11T09:45:39.012Z,99859.63
2024-01-11T09:47:57.788Z,99873.44
2024-01-11T09:50:32.888Z,99878.47
2024-01-11T09:53:05.998Z,99898.94
2024-01-11T09:55:23.182Z,99906.47
2024-01-11T09:57:50.413Z,99901.13
2024-01-11T10:00:19.453Z,99894.72
2024-01-11T10:02:37.384Z,99895.63
2024-01-11T10:04:44.418Z,99894.19
2024-01-11T10:06:47.259Z,99895.47
2024-01-11T10:08:48.828Z,99903.19
2024-01-11T10:10:53.794Z,99908.06
2024-01-11T10:13:01.896Z,99910.16
2024-01-11T10:15:16.234Z,99896.00
2024-01-11T10:17:27.380Z,99889.34
2024-01-11T10:19:37.249Z,99882.47
2024-01-11T10:21:59.202Z,99875.63
2024-01-11T10:24:05.692Z,99869.81
2024-01-11T10:26:17.491Z,99875.66
2024-01-11T10:28:47.371Z,99888.84
2024-01-11T10:31:09.555Z,99885.50
2024-01-11T10:33:12.427Z,99871.34
2024-01-11T10:35:20.846Z,99858.84
2024-01-11T10:37:36.405Z,99865.16
2024-01-11T10:39:39.541Z,99851.84
2024-01-11T10:41:46.779Z,99847.03
2024-01-11T10:43:49.957Z,99849.34
2024-01-11T10:45:55.038Z,99848.28
2024-01-11T10:48:02.777Z,99850.81
2024-01-11T10:50:08.902Z,99850.59
2024-01-11T10:52:13.554Z,99847.50
2024-01-11T10:54:15.707Z,99840.81
2024-01-11T10:56:17.956Z,99838.50
2024-01-11T10:58:22.167Z,99838.31
2024-01-11T11:00:24.031Z,99842.31
2024-01-11T11:02:27.341Z,99846.31
2024-01-11T11:04:30.151Z,99845.06
2024-01-11T11:06:33.491Z,99844.63
2024-01-11T11:08:35.569Z,99840.66
2024-01-11T11:10:46.419Z,99830.47
2024-01-11T11:12:49.897Z,99823.81
2024-01-11T11:14:53.377Z,99835.28
2024-01-11T11:16:55.257Z,99823.19
2024-01-11T11:18:57.484Z,99821.72
2024-01-11T11:20:59.214Z,99812.13
2024-01-11T11:23:07.877Z,99807.31
2024-01-11T11:25:13.033Z,99810.44
2024-01-11T11:27:15.798Z,99828.44
2024-01-11T11:29:17.832Z,99828.88
2024-01-11T11:31:43.350Z,99826.78
2024-01-11T11:33:44.906Z,99837.84
2024-01-11T11:35:53.151Z,99846.22
2024-01-11T11:37:58.334Z,99840.16
2024-01-11T11:40:01.934Z,99839.34
2024-01-11T11:42:05.534Z,99829.31
2024-01-11T11:44:08.039Z,99826.78
2024-01-11T11:46:09.966Z,99826.59
2024-01-11T11:48:29.994Z,99837.69
2024-01-11T11:50:32.385Z,99831.19
2024-01-11T11:52:38.701Z,99826.78
2024-01-11T11:54:40.490Z,99828.47
2024-01-11T11:56:42.307Z,99823.00
2024-01-11T11:58:45.131Z,99820.25
2024-01-11T12:00:48.828Z,99817.53
2024-01-11T12:02:53.582Z,99805.78
2024-01-11T12:04:56.012Z,99797.41
2024-01-11T12:06:57.705Z,99793.81
2024-01-11T12:08:59.285Z,99783.75
2024-01-11T12:11:01.064Z,99782.25
2024-01-11T12:13:03.875Z,99786.84
2024-01-11T12:15:07.542Z,99785.34
2024-01-11T12:17:09.059Z,99786.59
2024-01-11T12:19:11.003Z,99793.91
2024-01-11T12:21:12.841Z,99793.28
2024-01-11T12:23:17.302Z,99790.94
2024-01-11T12:25:19.003Z,99798.25
2024-01-11T12:27:21.509Z,99798.22
2024-01-11T12:29:23.732Z,99787.50
2024-01-11T12:31:25.406Z,99784.97
2024-01-11T12:33:29.575Z,99775.31
2024-01-11T12:35:34.335Z,99768.16
2024-01-11T12:37:35.905Z,99771.66
2024-01-11T12:39:39.048Z,99762.59
2024-01-11T12:41:41.548Z,99757.56
2024-01-11T12:43:43.505Z,99769.47
2024-01-11T12:45:45.127Z,99777.81
2024-01-11T12:47:47.342Z,99760.56
2024-01-11T12:49:53.030Z,99763.25
2024-01-11T12:51:55.460Z,99758.56
2024-01-11T12:53:58.875Z,99760.78
2024-01-11T12:56:14.559Z,99756.94
2024-01-11T12:58:20.856Z,99759.97
2024-01-11T13:00:23.110Z,99757.81
2024-01-11T13:02:25.329Z,99757.53
2024-01-11T13:04:27.130Z,99748.41
2024-01-11T13:06:36.094Z,99745.38
2024-01-11T13:08:41.374Z,99742.38
2024-01-11T13:10:42.928Z,99737.66
2024-01-11T13:12:48.379Z,99737.81
2024-01-11T13:14:54.106Z,99740.47
2024-01-11T13:16:55.880Z,99737.69
2024-01-11T13:18:59.387Z,99726.91
2024-01-11T13:21:00.924Z,99728.34
2024-01-11T13:23:17.931Z,99728.94
2024-01-11T13:25:19.559Z,99733.09
2024-01-11T13:27:21.519Z,99741.91
2024-01-11T13:29:23.157Z,99728.22
2024-01-11T13:31:24.683Z,99716.00
2024-01-11T13:33:26.607Z,99715.81
2024-01-11T13:35:28.901Z,99714.97
2024-01-11T13:37:30.530Z,99713.91
2024-01-11T13:39:31.982Z,99701.31
2024-01-11T13:41:33.715Z,99702.13
2024-01-11T13:43:39.201Z,99688.47
2024-01-11T13:45:40.791Z,99698.31
2024-01-11T13:47:42.254Z,99721.84
2024-01-11T13:49:44.182Z,99727.31
2024-01-11T13:51:54.018Z,99729.22
2024-01-11T13:54:01.970Z,99733.03
2024-01-11T13:56:03.938Z,99729.22
2024-01-11T13:58:05.888Z,99731.75
2024-01-11T14:00:07.832Z,99738.00
2024-01-11T14:02:13.234Z,99732.34
2024-01-11T14:04:15.092Z,99725.78
2024-01-11T14:06:17.103Z,99728.50
2024-01-11T14:08:18.655Z,99730.44
2024-01-11T14:10:20.127Z,99734.59
2024-01-11T14:12:21.885Z,99731.88
2024-01-11T14:14:23.519Z,99743.03
2024-01-11T14:16:26.045Z,99749.31
2024-01-11T14:18:29.065Z,99752.06
2024-01-11T14:20:32.041Z,99762.75
2024-01-11T14:22:33.926Z,99756.47
2024-01-11T14:24:36.780Z,99764.44
2024-01-11T14:26:39.283Z,99763.81
2024-01-11T14:28:43.875Z,99756.69
2024-01-11T14:30:46.301Z,99747.66
2024-01-11T14:32:47.917Z,99744.91
2024-01-11T14:34:50.284Z,99743.47
2024-01-11T14:36:52.008Z,99748.13
2024-01-11T14:38:53.475Z,99749.78
2024-01-11T14:40:55.112Z,99750.88
2024-01-11T14:42:56.867Z,99748.13
2024-01-11T14:44:58.683Z,99748.13
2024-01-11T14:47:00.174Z,99756.31
2024-01-11T14:49:01.857Z,99750.22
2024-01-11T14:51:03.928Z,99758.69
2024-01-11T14:53:06.397Z,99758.91
2024-01-11T14:55:10.734Z,99754.50
2024-01-11T14:57:14.104Z,99754.50
2024-01-11T14:59:15.866Z,99761.03
2024-01-11T15:01:17.429Z,99760.22
2024-01-11T15:03:20.397Z,99750.34
2024-01-11T15:05:22.303Z,99752.22
2024-01-11T15:07:24.004Z,99756.03
2024-01-11T15:09:26.874Z,99757.09
2024-01-11T15:11:29.275Z,99740.69
2024-01-11T15:13:31.951Z,99747.22
2024-01-11T15:15:33.486Z,99736.53
2024-01-11T15:17:35.364Z,99731.06
2024-01-11T15:19:36.964Z,99723.13
2024-01-11T15:21:43.151Z,99710.50
2024-01-11T15:23:49.521Z,99713.47
2024-01-11T15:25:51.288Z,99717.84
2024-01-11T15:27:52.767Z,99724.41
2024-01-11T15:29:54.445Z,99741.00
2024-01-11T15:31:56.125Z,99737.44
2024-01-11T15:33:59.247Z,99734.69
2024-01-11T15:36:00.941Z,99729.47
2024-01-11T15:38:02.598Z,99734.94
2024-01-11T15:40:05.166Z,99731.16
2024-01-11T15:42:07.331Z,99732.81
2024-01-11T15:44:09.077Z,99750.88
2024-01-11T15:46:11.445Z,99754.66
2024-01-11T15:48:13.293Z,99750.50
2024-01-11T15:50:14.923Z,99759.78
2024-01-11T15:52:17.040Z,99769.22
2024-01-11T15:54:21.324Z,99777.41
2024-01-11T15:56:23.262Z,99779.06
2024-01-11T15:58:25.012Z,99773.59
2024-01-11T16:00:26.691Z,99768.97
2024-01-11T16:02:28.621Z,99773.59
2024-01-11T16:04:30.089Z,99775.50
2024-01-11T16:06:32.215Z,99768.00
2024-01-11T16:08:34.027Z,99770.97
2024-01-11T16:10:35.562Z,99766.16
2024-01-11T16:12:37.038Z,99780.28
2024-01-11T16:14:38.603Z,99780.75
2024-01-11T16:16:40.774Z,99780.59
2024-01-11T16:18:42.452Z,99780.00
2024-01-11T16:20:43.988Z,99778.53
2024-01-11T16:22:45.560Z,99786.34
2024-01-11T16:24:50.212Z,99783.00
2024-01-11T16:26:51.876Z,99786.41
2024-01-11T16:28:53.371Z,99786.03
2024-01-11T16:30:55.107Z,99789.19
2024-01-11T16:32:57.380Z,99781.44
2024-01-11T16:34:58.933Z,99780.00
2024-01-11T16:37:07.507Z,99781.78
2024-01-11T16:39:14.046Z,99781.38
2024-01-11T16:41:16.101Z,99778.47
2024-01-11T16:43:17.727Z,99774.31
2024-01-11T16:45:19.497Z,99774.97
2024-01-11T16:47:21.200Z,99769.97
2024-01-11T16:49:23.484Z,99775.03
2024-01-11T16:51:25.145Z,99771.09
2024-01-11T16:53:26.640Z,99769.88
2024-01-11T16:55:28.823Z,99773.25
2024-01-11T16:57:30.372Z,99776.44
2024-01-11T16:59:31.902Z,99780.44
2024-01-11T17:01:49.648Z,99781.31
2024-01-11T17:03:51.195Z,99781.75
2024-01-11T17:05:52.783Z,99782.19
2024-01-11T17:07:54.244Z,99786.00
2024-01-11T17:09:55.685Z,99781.81
2024-01-11T17:11:57.198Z,99780.38
2024-01-11T17:13:58.934Z,99765.50
2024-01-11T17:16:01.041Z,99771.41
2024-01-11T17:18:02.853Z,99782.53
2024-01-11T17:20:04.962Z,99788.63
2024-01-11T17:22:06.680Z,99783.84
2024-01-11T17:24:08.323Z,99784.06
2024-01-11T17:26:10.132Z,99788.28
2024-01-11T17:28:11.628Z,99795.84
2024-01-11T17:30:13.379Z,99788.94
2024-01-11T17:32:14.944Z,99797.31
2024-01-11T17:34:16.619Z,99786.66
2024-01-11T17:36:18.166Z,99792.31
2024-01-11T17:38:19.775Z,99788.75
2024-01-11T17:40:21.414Z,99775.34
2024-01-11T17:42:24.167Z,99771.78
2024-01-11T17:44:25.817Z,99772.84
2024-01-11T17:46:29.336Z,99779.34
2024-01-11T17:48:31.652Z,99785.03
2024-01-11T17:50:34.488Z,99777.88
2024-01-11T17:52:36.920Z,99777.03
2024-01-11T17:54:40.357Z,99776.00
2024-01-11T17:56:44.941Z,99779.78
2024-01-11T17:58:47.134Z,99781.69
2024-01-11T18:00:48.690Z,99793.63
2024-01-11T18:02:50.202Z,99801.78
2024-01-11T18:04:51.708Z,99797.19
2024-01-11T18:06:53.484Z,99793.81
2024-01-11T18:08:55.056Z,99801.16
2024-01-11T18:10:56.848Z,99800.53
2024-01-11T18:12:58.343Z,99801.81
2024-01-11T18:15:00.178Z,99811.03
2024-01-11T18:17:02.000Z,99815.84
2024-01-11T18:19:04.097Z,99818.78
2024-01-11T18:21:06.158Z,99823.19
2024-01-11T18:23:09.376Z,99819.84
2024-01-11T18:25:10.929Z,99821.31
2024-01-11T18:27:12.576Z,99819.88
2024-01-11T18:29:14.537Z,99817.38
2024-01-11T18:31:16.988Z,99814.69
2024-01-11T18:33:19.267Z,99817.59
2024-01-11T18:35:20.830Z,99805.25
2024-01-11T18:37:23.960Z,99795.63
2024-01-11T18:39:25.631Z,99792.28
2024-01-11T18:41:27.195Z,99803.59
2024-01-11T18:43:29.761Z,99804.88
2024-01-11T18:45:31.205Z,99801.75
2024-01-11T18:47:33.019Z,99803.84
2024-01-11T18:49:34.594Z,99801.56
2024-01-11T18:51:40.765Z,99794.22
2024-01-11T18:53:43.027Z,99804.50
2024-01-11T18:55:52.968Z,99803.88
2024-01-11T18:57:57.640Z,99803.69
2024-01-11T19:00:00.230Z,99806.63
2024-01-11T19:02:02.228Z,99800.53
2024-01-11T19:04:05.150Z,99808.09
2024-01-11T19:06:10.050Z,99812.06
2024-01-11T19:08:29.330Z,99808.97
2024-01-11T19:11:09.776Z,99805.59
2024-01-11T19:13:11.280Z,99807.06
2024-01-11T19:15:12.816Z,99809.38
2024-01-11T19:17:15.231Z,99815.25
2024-01-11T19:19:16.865Z,99824.47
2024-01-11T19:21:18.453Z,99824.03
2024-01-11T19:23:27.695Z,99819.25
2024-01-11T19:25:32.447Z,99817.59
2024-01-11T19:27:34.602Z,99823.44
2024-01-11T19:29:36.100Z,99822.81
2024-01-11T19:31:37.633Z,99820.50
2024-01-11T19:33:39.446Z,99829.53
2024-01-11T19:35:41.433Z,99834.31
2024-01-11T19:37:44.042Z,99833.91
2024-01-11T19:39:48.497Z,99838.50
2024-01-11T19:41:50.064Z,99836.19
2024-01-11T19:43:51.608Z,99837.28
2024-01-11T19:45:53.076Z,99840.19
2024-01-11T19:47:54.631Z,99843.13
2024-01-11T19:49:56.575Z,99850.00
2024-01-11T19:51:58.056Z,99849.38
2024-01-11T19:53:59.601Z,99851.66
2024-01-11T19:56:01.144Z,99850.19
2024-01-11T19:58:03.153Z,99850.66
2024-01-11T20:00:05.745Z,99848.13
2024-01-11T20:02:12.329Z,99849.38
2024-01-11T20:04:13.804Z,99862.34
2024-01-11T20:06:15.432Z,99852.72
2024-01-11T20:08:17.082Z,99860.44
2024-01-11T20:10:18.707Z,99865.06
2024-01-11T20:12:20.135Z,99870.06
2024-01-11T20:17:30.034Z,99877.38
2024-01-11T20:19:31.726Z,99872.78
2024-01-11T20:21:33.809Z,99873.19
2024-01-11T20:26:03.788Z,99876.53
2024-01-11T20:28:05.856Z,99881.31
2024-01-11T20:30:11.824Z,99880.69
2024-01-11T20:32:13.966Z,99881.94
2024-01-11T20:34:15.570Z,99884.88
2024-01-11T20:36:17.347Z,99890.69
2024-01-11T20:38:20.187Z,99895.50
2024-01-11T20:40:21.785Z,99893.19
2024-01-11T20:42:23.605Z,99899.88
2024-01-11T20:44:25.366Z,99893.19
2024-01-11T20:46:28.000Z,99897.97
2024-01-11T20:48:32.308Z,99889.19
2024-01-11T20:50:34.152Z,99888.53
2024-01-11T20:52:35.658Z,99889.78
2024-01-11T20:54:39.022Z,99889.97
2024-01-11T20:56:45.105Z,99896.22
2024-01-11T20:58:46.717Z,99896.44
2024-01-11T21:00:48.574Z,99897.47
2024-01-11T21:02:52.061Z,99900.41
2024-01-11T21:04:53.868Z,99915.00
2024-01-11T21:06:55.648Z,99916.25
2024-01-11T21:09:13.078Z,99918.56
2024-01-11T21:19:52.812Z,99894.25
2024-01-11T21:25:21.203Z,99897.56
2024-01-11T21:28:03.180Z,99895.91
2024-01-11T21:33:42.036Z,99884.19
2024-01-11T21:38:37.765Z,99877.44
2024-01-11T21:40:43.176Z,99881.00
2024-01-11T21:42:49.841Z,99882.25
2024-01-11T21:44:56.005Z,99877.66
2024-01-11T21:49:51.021Z,99886.41
2024-01-11T21:51:54.769Z,99890.16
2024-01-11T21:53:59.197Z,99888.47
2024-01-11T21:56:02.889Z,99890.34
2024-01-11T21:58:04.745Z,99892.41
2024-01-11T22:03:12.509Z,99889.69
2024-01-11T22:06:08.913Z,99896.53
2024-01-11T22:08:12.426Z,99893.81
2024-01-11T22:10:51.921Z,99892.16
2024-01-11T22:13:04.074Z,99902.38
2024-01-11T22:15:10.207Z,99895.25
2024-01-11T22:17:17.573Z,99901.53
2024-01-11T22:19:28.215Z,99892.53
2024-01-11T22:24:17.590Z,99893.31
2024-01-11T22:29:12.589Z,99900.59
2024-01-11T22:34:14.166Z,99904.75
2024-01-11T22:36:19.230Z,99907.84
2024-01-11T22:38:25.615Z,99910.56
2024-01-11T22:46:22.679Z,99930.06
2024-01-11T22:48:24.340Z,99930.06
2024-01-11T22:54:03.431Z,99938.38
2024-01-11T22:56:42.379Z,99942.06
2024-01-11T22:58:44.663Z,99939.34
2024-01-11T23:01:00.888Z,99936.81
2024-01-11T23:03:45.485Z,99942.44
2024-01-11T23:11:49.495Z,99936.28
2024-01-11T23:14:11.328Z,99933.59
2024-01-11T23:16:32.768Z,99938.16
2024-01-11T23:21:31.379Z,99933.97
2024-01-11T23:26:23.293Z,99925.56
2024-01-11T23:28:49.309Z,99924.94
2024-01-11T23:30:56.930Z,99933.06
2024-01-11T23:33:19.204Z,99929.50
2024-01-11T23:35:20.813Z,99935.78
2024-01-11T23:37:33.731Z,99925.78
2024-01-11T23:45:43.524Z,99914.31
2024-01-11T23:56:39.060Z,99914.47
